Meteo Giornale » Osservazioni meteo Stati Uniti (USA) » Stillwater
ore: 15:53 - Osservazioni Meteo Stillwater
Lat. 36° 9' N Lon. 97° 5' W Alt. 300 metri s.l.m.
37 °C
Poco Nuvoloso
Temp. 24 Ore
23 °C
38 °C
Sud/Sud-Est
18.5 Km/h
Dew point 17 °C
Umidità 30 %
Visibilità 10 Km
Il sole sorge alle ore 06:59
Il sole tramonta alle ore 19:57
| Data e Ora | Cielo e Fenomeni | T °C | DP °C | Um. % | Pres. hPa | Vis. km | Vento km/h | |
|---|---|---|---|---|---|---|---|---|
| Oggi h: 15:53 | Poco Nuvoloso | 37 | 17 | 30 | 1013 | 10 | S/SE 18.5 | |
| Oggi h: 14:53 | Nuvoloso | 37 | 17 | 30 | 1014 | 10 | S/SE 20.3 | |
| Oggi h: 13:53 | Molto Nuvoloso | 35 | 17 | 34 | 1015 | 10 | N 5.5 | |
| Oggi h: 12:53 | Sereno | 37 | 17 | 30 | 1015 | 10 | S 18.5 | |
| Oggi h: 11:53 | Sereno | 36 | 19 | 36 | 1016 | 10 | S 22.2 | |
| Oggi h: 10:53 | Sereno | 33 | 19 | 43 | 1016 | 10 | S 20.3 | |
| Oggi h: 09:53 | Sereno | 30 | 18 | 48 | 1016 | 10 | S 16.7 | |
| Oggi h: 08:53 | Sereno | 27 | 17 | 54 | 1016 | 10 | S 13 | |
| Oggi h: 07:53 | Sereno | 24 | 17 | 64 | 1016 | 10 | S/SE 7.4 | |
| Oggi h: 06:53 | Sereno | 23 | 16 | 64 | 1015 | 10 | SE 7.4 | |
| Oggi h: 05:53 | Sereno | 24 | 16 | 60 | 1015 | 10 | S/SE 7.4 | |
| Oggi h: 04:53 | Sereno | 24 | 16 | 60 | 1014 | 10 | SE 11.1 | |
| Oggi h: 03:53 | Sereno | 25 | 16 | 57 | 1014 | 10 | S/SE 9.3 | |
| Oggi h: 02:53 | Sereno | 26 | 16 | 54 | 1014 | 10 | S 9.3 | |
| Oggi h: 01:53 | Sereno | 26 | 16 | 54 | 1013 | 10 | N 0 | |
| Oggi h: 00:53 | Sereno | 28 | 16 | 48 | 1013 | 10 | N 0 | |
| Ieri h: 23:53 | Sereno | 29 | 16 | 45 | 1013 | 10 | S 14.8 | |
| Ieri h: 22:53 | Sereno | 31 | 16 | 40 | 1012 | 10 | S 20.3 | |
| Ieri h: 21:53 | Sereno | 31 | 16 | 40 | 1012 | 10 | S/SE 16.7 | |
| Ieri h: 20:53 | Sereno | 32 | 16 | 38 | 1011 | 10 | S/SE 14.8 | |
| Ieri h: 19:53 | Sereno | 34 | 16 | 34 | 1011 | 10 | S/SE 16.7 | |
| Ieri h: 18:53 | Sereno | 36 | 16 | 30 | 1011 | 10 | S/SE 20.3 | |
| Ieri h: 17:53 | Sereno | 38 | 16 | 27 | 1010 | 10 | S/SE 24 | |



